createdAt,value
2023-05-19T00:02:09.354Z,9.10
2023-05-19T00:04:37.059Z,9.10
2023-05-19T00:07:05.497Z,9.10
2023-05-19T00:09:32.425Z,9.10
2023-05-19T00:11:59.348Z,9.10
2023-05-19T00:14:26.374Z,9.00
2023-05-19T00:16:53.407Z,9.00
2023-05-19T00:19:20.241Z,8.90
2023-05-19T00:21:47.118Z,8.90
2023-05-19T00:24:13.832Z,8.90
2023-05-19T00:26:40.618Z,8.90
2023-05-19T00:29:07.629Z,8.80
2023-05-19T00:31:34.540Z,8.90
2023-05-19T00:34:01.855Z,8.80
2023-05-19T00:36:28.857Z,8.80
2023-05-19T00:38:56.117Z,8.80
2023-05-19T00:41:22.910Z,8.80
2023-05-19T00:43:50.945Z,8.80
2023-05-19T00:46:19.156Z,8.80
2023-05-19T00:48:46.041Z,8.80
2023-05-19T00:51:16.749Z,8.80
2023-05-19T00:53:48.577Z,8.70
2023-05-19T00:56:19.150Z,8.70
2023-05-19T00:58:46.498Z,8.70
2023-05-19T01:01:14.554Z,8.70
2023-05-19T01:03:43.442Z,8.60
2023-05-19T01:06:12.197Z,8.60
2023-05-19T01:08:39.453Z,8.60
2023-05-19T01:11:07.406Z,8.50
2023-05-19T01:13:35.713Z,8.50
2023-05-19T01:16:30.729Z,8.50
2023-05-19T01:19:36.849Z,8.50
2023-05-19T01:22:27.483Z,8.50
2023-05-19T01:25:06.995Z,8.50
2023-05-19T01:28:11.304Z,8.50
2023-05-19T01:30:45.248Z,8.50
2023-05-19T01:33:16.680Z,8.50
2023-05-19T01:35:45.767Z,8.50
2023-05-19T01:38:15.278Z,8.50
2023-05-19T01:40:43.819Z,8.50
2023-05-19T01:43:14.990Z,8.50
2023-05-19T01:45:42.179Z,8.40
2023-05-19T01:48:11.117Z,8.40
2023-05-19T01:50:40.293Z,8.40
2023-05-19T01:53:07.515Z,8.30
2023-05-19T01:55:41.610Z,8.40
2023-05-19T01:58:37.346Z,8.30
2023-05-19T02:01:20.100Z,8.30
2023-05-19T02:03:58.992Z,8.30
2023-05-19T02:06:42.077Z,8.30
2023-05-19T02:09:25.458Z,8.30
2023-05-19T02:12:02.812Z,8.30
2023-05-19T02:14:38.933Z,8.30
2023-05-19T02:17:06.331Z,8.30
2023-05-19T02:19:37.001Z,8.40
2023-05-19T02:22:03.843Z,8.40
2023-05-19T02:24:30.848Z,8.40
2023-05-19T02:26:59.524Z,8.40
2023-05-19T02:29:26.591Z,8.40
2023-05-19T02:31:53.357Z,8.40
2023-05-19T02:34:20.974Z,8.40
2023-05-19T02:36:49.820Z,8.40
2023-05-19T02:39:16.774Z,8.40
2023-05-19T02:41:43.473Z,8.40
2023-05-19T02:44:10.191Z,8.50
2023-05-19T02:46:37.234Z,8.50
2023-05-19T02:49:04.183Z,8.50
2023-05-19T02:51:30.967Z,8.50
2023-05-19T02:53:57.729Z,8.50
2023-05-19T02:56:24.608Z,8.50
2023-05-19T02:58:52.657Z,8.50
2023-05-19T03:01:22.084Z,8.60
2023-05-19T03:03:48.951Z,8.50
2023-05-19T03:06:17.986Z,8.50
2023-05-19T03:08:45.108Z,8.40
2023-05-19T03:11:11.914Z,8.40
2023-05-19T03:13:38.861Z,8.50
2023-05-19T03:16:08.099Z,8.50
2023-05-19T03:18:35.237Z,8.50
2023-05-19T03:21:01.964Z,8.50
2023-05-19T03:23:28.729Z,8.50
2023-05-19T03:25:56.292Z,8.40
2023-05-19T03:28:23.463Z,8.50
2023-05-19T03:30:50.750Z,8.50
2023-05-19T03:33:20.047Z,8.50
2023-05-19T03:35:46.973Z,8.50
2023-05-19T03:38:14.740Z,8.50
2023-05-19T03:40:48.952Z,8.50
2023-05-19T03:43:16.249Z,8.50
2023-05-19T03:45:50.094Z,8.50
2023-05-19T03:48:35.550Z,8.50
2023-05-19T03:51:22.533Z,8.60
2023-05-19T03:53:52.584Z,8.60
2023-05-19T03:56:20.674Z,8.60
2023-05-19T03:58:49.668Z,8.60
2023-05-19T04:01:16.458Z,8.70
2023-05-19T04:03:43.366Z,8.70
2023-05-19T04:06:10.788Z,8.70
2023-05-19T04:08:37.492Z,8.70
2023-05-19T04:11:04.346Z,8.70
2023-05-19T04:13:33.704Z,8.70
2023-05-19T04:16:01.065Z,8.70
2023-05-19T04:18:29.159Z,8.70
2023-05-19T04:20:56.339Z,8.70
2023-05-19T04:23:23.092Z,8.80
2023-05-19T04:25:50.068Z,8.80
2023-05-19T04:28:17.822Z,8.80
2023-05-19T04:30:46.495Z,8.80
2023-05-19T04:33:13.703Z,8.80
2023-05-19T04:35:40.748Z,8.80
2023-05-19T04:38:10.038Z,8.80
2023-05-19T04:40:37.459Z,8.80
2023-05-19T04:43:04.239Z,8.80
2023-05-19T04:45:33.032Z,8.80
2023-05-19T04:48:01.894Z,8.80
2023-05-19T04:50:30.777Z,8.90
2023-05-19T04:52:59.155Z,8.90
2023-05-19T04:55:26.615Z,9.00
2023-05-19T04:57:53.815Z,9.00
2023-05-19T05:00:21.706Z,9.10
2023-05-19T05:02:58.950Z,9.20
2023-05-19T05:05:28.437Z,9.20
2023-05-19T05:07:55.580Z,9.30
2023-05-19T05:10:24.671Z,9.30
2023-05-19T05:12:51.672Z,9.40
2023-05-19T05:15:19.049Z,9.30
2023-05-19T05:17:49.163Z,9.30
2023-05-19T05:20:17.067Z,9.30
2023-05-19T05:22:44.047Z,9.30
2023-05-19T05:25:13.359Z,9.30
2023-05-19T05:27:40.282Z,9.30
2023-05-19T05:30:08.865Z,9.40
2023-05-19T05:32:36.841Z,9.40
2023-05-19T05:35:10.093Z,9.40
2023-05-19T05:37:38.068Z,9.50
2023-05-19T05:40:06.995Z,9.50
2023-05-19T05:42:34.624Z,9.60
2023-05-19T05:45:01.442Z,9.60
2023-05-19T05:47:28.535Z,9.70
2023-05-19T05:49:55.583Z,9.80
2023-05-19T05:52:25.868Z,9.80
2023-05-19T05:54:53.038Z,9.90
2023-05-19T05:57:20.830Z,9.90
2023-05-19T05:59:48.068Z,9.90
2023-05-19T06:02:15.375Z,9.90
2023-05-19T06:04:42.252Z,9.90
2023-05-19T06:07:09.073Z,9.80
2023-05-19T06:09:38.167Z,9.90
2023-05-19T06:12:06.801Z,10.00
2023-05-19T06:14:38.742Z,10.20
2023-05-19T06:17:14.293Z,10.40
2023-05-19T06:19:41.260Z,10.50
2023-05-19T06:22:07.959Z,10.70
2023-05-19T06:24:34.708Z,10.80
2023-05-19T06:27:02.006Z,10.90
2023-05-19T06:29:28.720Z,10.90
2023-05-19T06:31:59.047Z,11.00
2023-05-19T06:34:25.795Z,11.20
2023-05-19T06:36:53.613Z,11.50
2023-05-19T06:39:20.396Z,11.70
2023-05-19T06:41:47.164Z,11.90
2023-05-19T06:44:27.221Z,12.00
2023-05-19T06:46:53.939Z,12.20
2023-05-19T06:49:20.970Z,12.30
2023-05-19T06:51:49.174Z,12.40
2023-05-19T06:54:16.329Z,12.60
2023-05-19T06:56:43.147Z,12.70
2023-05-19T06:59:10.372Z,12.80
2023-05-19T07:01:37.978Z,12.70
2023-05-19T07:04:05.063Z,12.80
2023-05-19T07:06:31.940Z,12.90
2023-05-19T07:08:58.762Z,13.00
2023-05-19T07:11:26.449Z,13.10
2023-05-19T07:13:53.736Z,12.90
2023-05-19T07:16:26.329Z,12.70
2023-05-19T07:18:54.984Z,12.70
2023-05-19T07:21:21.792Z,12.70
2023-05-19T07:23:49.948Z,12.80
2023-05-19T07:26:16.820Z,12.90
2023-05-19T07:28:43.585Z,12.90
2023-05-19T07:31:10.356Z,12.90
2023-05-19T07:33:37.078Z,12.80
2023-05-19T07:36:04.475Z,12.70
2023-05-19T07:38:34.353Z,12.70
2023-05-19T07:41:02.498Z,12.60
2023-05-19T07:43:29.328Z,12.60
2023-05-19T07:45:56.457Z,12.70
2023-05-19T07:48:25.555Z,12.80
2023-05-19T07:50:53.084Z,13.00
2023-05-19T07:53:20.403Z,13.10
2023-05-19T07:55:47.076Z,13.20
2023-05-19T07:58:13.878Z,13.30
2023-05-19T08:00:43.058Z,13.20
2023-05-19T08:03:10.368Z,13.30
2023-05-19T08:05:37.312Z,13.40
2023-05-19T08:08:04.315Z,13.40
2023-05-19T08:10:31.431Z,13.60
2023-05-19T08:12:58.231Z,13.80
2023-05-19T08:15:25.389Z,13.80
2023-05-19T08:17:52.481Z,13.80
2023-05-19T08:20:19.334Z,13.80
2023-05-19T08:22:46.033Z,13.80
2023-05-19T08:25:13.758Z,13.70
2023-05-19T08:27:40.560Z,13.70
2023-05-19T08:30:08.078Z,13.70
2023-05-19T08:32:34.900Z,13.60
2023-05-19T08:35:01.649Z,13.70
2023-05-19T08:37:28.414Z,13.70
2023-05-19T08:39:55.140Z,13.70
2023-05-19T08:42:21.849Z,13.70
2023-05-19T08:44:48.715Z,13.60
2023-05-19T08:47:15.863Z,13.60
2023-05-19T08:49:46.715Z,13.50
2023-05-19T08:52:31.331Z,13.50
2023-05-19T08:55:09.559Z,13.50
2023-05-19T08:57:38.066Z,13.70
2023-05-19T09:00:09.492Z,13.80
2023-05-19T09:02:46.616Z,13.80
2023-05-19T09:05:23.021Z,14.00
2023-05-19T09:07:49.752Z,14.10
2023-05-19T09:10:16.601Z,14.10
2023-05-19T09:12:45.904Z,14.10
2023-05-19T09:15:13.005Z,14.00
2023-05-19T09:17:40.553Z,14.10
2023-05-19T09:20:11.114Z,14.20
2023-05-19T09:22:47.551Z,14.30
2023-05-19T09:25:23.643Z,14.20
2023-05-19T09:27:50.991Z,14.20
2023-05-19T09:30:18.416Z,14.30
2023-05-19T09:32:47.120Z,14.50
2023-05-19T09:35:17.011Z,14.50
2023-05-19T09:37:44.115Z,14.40
2023-05-19T09:40:13.610Z,14.40
2023-05-19T09:42:41.583Z,14.40
2023-05-19T09:45:09.401Z,14.40
2023-05-19T09:47:38.277Z,14.30
2023-05-19T09:50:12.331Z,14.30
2023-05-19T09:52:40.917Z,14.30
2023-05-19T09:55:11.461Z,14.40
2023-05-19T09:57:40.147Z,14.50
2023-05-19T10:00:13.577Z,14.50
2023-05-19T10:02:43.632Z,14.70
2023-05-19T10:05:19.772Z,15.00
2023-05-19T10:07:49.869Z,15.40
2023-05-19T10:10:17.040Z,15.50
2023-05-19T10:12:44.037Z,15.60
2023-05-19T10:15:20.015Z,15.70
2023-05-19T10:17:49.915Z,15.70
2023-05-19T10:20:17.834Z,15.50
2023-05-19T10:22:46.650Z,15.30
2023-05-19T10:25:20.030Z,15.10
2023-05-19T10:27:56.778Z,14.90
2023-05-19T10:30:29.391Z,15.00
2023-05-19T10:32:57.378Z,15.00
2023-05-19T10:35:24.088Z,15.00
2023-05-19T10:38:09.391Z,15.00
2023-05-19T10:41:00.978Z,15.00
2023-05-19T10:43:38.951Z,15.00
2023-05-19T10:46:06.359Z,15.00
2023-05-19T10:48:37.270Z,15.10
2023-05-19T10:51:07.073Z,15.30
2023-05-19T10:53:34.911Z,15.40
2023-05-19T10:56:03.941Z,15.50
2023-05-19T10:58:43.465Z,15.50
2023-05-19T11:01:14.910Z,15.50
2023-05-19T11:03:53.156Z,15.80
2023-05-19T11:06:21.292Z,15.90
2023-05-19T11:09:00.823Z,15.90
2023-05-19T11:11:47.487Z,15.90
2023-05-19T11:14:17.006Z,16.00
2023-05-19T11:16:47.912Z,16.00
2023-05-19T11:19:31.211Z,15.90
2023-05-19T11:22:11.781Z,15.90
2023-05-19T11:24:42.060Z,15.80
2023-05-19T11:27:32.522Z,15.90
2023-05-19T11:30:00.045Z,15.90
2023-05-19T11:32:33.323Z,15.90
2023-05-19T11:35:00.898Z,15.90
2023-05-19T11:37:31.233Z,16.00
2023-05-19T11:40:01.169Z,15.90
2023-05-19T11:42:27.864Z,15.80
2023-05-19T11:44:57.668Z,15.80
2023-05-19T11:47:24.457Z,15.90
2023-05-19T11:49:54.816Z,16.00
2023-05-19T11:52:23.203Z,16.10
2023-05-19T11:54:50.613Z,16.20
2023-05-19T11:57:17.848Z,16.20
2023-05-19T11:59:45.793Z,16.20
2023-05-19T12:02:39.132Z,16.60
2023-05-19T12:05:06.299Z,16.70
2023-05-19T12:07:33.045Z,16.80
2023-05-19T12:10:00.170Z,17.10
2023-05-19T12:12:29.752Z,17.40
2023-05-19T12:14:56.958Z,17.50
2023-05-19T12:17:24.254Z,17.40
2023-05-19T12:19:51.544Z,17.30
2023-05-19T12:22:18.202Z,17.10
2023-05-19T12:24:46.273Z,17.00
2023-05-19T12:27:16.828Z,16.90
2023-05-19T12:29:43.766Z,16.90
2023-05-19T12:32:10.537Z,17.00
2023-05-19T12:34:38.447Z,17.20
2023-05-19T12:37:06.199Z,17.20
2023-05-19T12:39:33.865Z,17.10
2023-05-19T12:42:07.800Z,17.10
2023-05-19T12:44:39.226Z,17.10
2023-05-19T12:47:07.129Z,17.20
2023-05-19T12:49:34.559Z,17.10
2023-05-19T12:52:06.094Z,16.90
2023-05-19T12:54:36.093Z,16.70
2023-05-19T12:57:05.585Z,16.60
2023-05-19T12:59:38.752Z,16.50
2023-05-19T13:02:06.662Z,16.40
2023-05-19T13:04:33.583Z,16.20
2023-05-19T13:07:00.380Z,16.20
2023-05-19T13:09:27.832Z,16.20
2023-05-19T13:11:54.762Z,16.20
2023-05-19T13:14:22.007Z,16.00
2023-05-19T13:16:48.893Z,15.90
2023-05-19T13:19:25.258Z,15.90
2023-05-19T13:21:52.711Z,15.90
2023-05-19T13:24:19.484Z,16.00
2023-05-19T13:26:46.271Z,15.90
2023-05-19T13:29:13.002Z,15.90
2023-05-19T13:31:39.720Z,15.90
2023-05-19T13:34:06.954Z,16.00
2023-05-19T13:36:34.876Z,16.00
2023-05-19T13:39:01.666Z,16.00
2023-05-19T13:41:31.048Z,16.10
2023-05-19T13:43:59.300Z,16.20
2023-05-19T13:46:36.608Z,16.10
2023-05-19T13:49:11.261Z,16.10
2023-05-19T13:51:38.010Z,16.30
2023-05-19T13:54:05.034Z,16.30
2023-05-19T13:56:31.940Z,16.40
2023-05-19T13:58:58.994Z,16.40
2023-05-19T14:01:25.793Z,16.50
2023-05-19T14:03:53.060Z,16.60
2023-05-19T14:06:19.779Z,16.70
2023-05-19T14:08:46.720Z,16.60
2023-05-19T14:11:19.683Z,16.70
2023-05-19T14:13:52.359Z,16.70
2023-05-19T14:16:21.862Z,16.60
2023-05-19T14:18:49.325Z,16.60
2023-05-19T14:21:16.190Z,16.50
2023-05-19T14:23:42.884Z,16.50
2023-05-19T14:26:09.887Z,16.60
2023-05-19T14:28:36.594Z,16.70
2023-05-19T14:31:03.555Z,16.60
2023-05-19T14:33:34.900Z,16.60
2023-05-19T14:36:02.357Z,16.60
2023-05-19T14:38:29.581Z,16.60
2023-05-19T14:40:56.783Z,16.60
2023-05-19T14:43:23.571Z,16.50
2023-05-19T14:45:50.321Z,16.40
2023-05-19T14:48:17.714Z,16.40
2023-05-19T14:50:44.858Z,16.40
2023-05-19T14:53:11.751Z,16.20
2023-05-19T14:55:38.541Z,16.10
2023-05-19T14:58:15.881Z,15.90
2023-05-19T15:00:52.283Z,15.70
2023-05-19T15:03:19.635Z,15.60
2023-05-19T15:05:46.369Z,15.60
2023-05-19T15:08:13.321Z,15.50
2023-05-19T15:10:40.072Z,15.60
2023-05-19T15:13:06.897Z,15.70
2023-05-19T15:15:33.696Z,16.00
2023-05-19T15:18:00.557Z,16.30
2023-05-19T15:20:29.445Z,16.60
2023-05-19T15:22:56.363Z,16.80
2023-05-19T15:25:23.115Z,16.90
2023-05-19T15:27:49.847Z,17.10
2023-05-19T15:30:16.630Z,17.10
2023-05-19T15:32:43.415Z,16.80
2023-05-19T15:35:10.289Z,16.80
2023-05-19T15:37:37.026Z,16.70
2023-05-19T15:40:04.457Z,16.50
2023-05-19T15:42:31.226Z,16.50
2023-05-19T15:44:57.924Z,16.50
2023-05-19T15:47:24.629Z,16.80
2023-05-19T15:49:51.491Z,16.90
2023-05-19T15:52:18.223Z,17.10
2023-05-19T15:54:45.009Z,17.40
2023-05-19T15:57:13.432Z,17.30
2023-05-19T15:59:40.267Z,17.20
2023-05-19T16:02:07.356Z,16.80
2023-05-19T16:04:34.173Z,16.60
2023-05-19T16:07:00.925Z,16.30
2023-05-19T16:09:27.711Z,16.40
2023-05-19T16:11:54.440Z,16.20
2023-05-19T16:14:21.122Z,15.90
2023-05-19T16:16:47.902Z,15.70
2023-05-19T16:19:14.687Z,15.60
2023-05-19T16:21:41.460Z,15.70
2023-05-19T16:24:08.198Z,15.90
2023-05-19T16:26:34.912Z,16.10
2023-05-19T16:29:01.621Z,16.70
2023-05-19T16:31:28.427Z,17.60
2023-05-19T16:33:55.287Z,18.10
2023-05-19T16:36:22.797Z,18.30
2023-05-19T16:38:49.566Z,18.40
2023-05-19T16:41:16.273Z,17.80
2023-05-19T16:43:43.020Z,17.10
2023-05-19T16:46:12.024Z,16.70
2023-05-19T16:48:38.956Z,16.30
2023-05-19T16:51:05.731Z,16.00
2023-05-19T16:53:32.636Z,15.70
2023-05-19T16:55:59.350Z,15.50
2023-05-19T16:58:27.937Z,15.30
2023-05-19T17:00:56.817Z,15.10
2023-05-19T17:03:24.010Z,15.00
2023-05-19T17:05:51.053Z,14.90
2023-05-19T17:08:17.852Z,14.70
2023-05-19T17:10:44.871Z,14.60
2023-05-19T17:13:11.790Z,14.60
2023-05-19T17:15:39.333Z,14.60
2023-05-19T17:18:07.131Z,14.50
2023-05-19T17:20:34.022Z,14.40
2023-05-19T17:23:01.078Z,14.40
2023-05-19T17:25:27.783Z,14.40
2023-05-19T17:27:55.686Z,14.30
2023-05-19T17:30:22.473Z,14.20
2023-05-19T17:32:49.418Z,14.10
2023-05-19T17:35:16.462Z,14.00
2023-05-19T17:37:43.211Z,14.00
2023-05-19T17:40:10.749Z,13.90
2023-05-19T17:42:37.437Z,13.90
2023-05-19T17:45:07.426Z,13.90
2023-05-19T17:47:34.509Z,13.90
2023-05-19T17:50:01.492Z,13.80
2023-05-19T17:52:28.537Z,13.80
2023-05-19T17:54:55.592Z,13.80
2023-05-19T17:57:25.759Z,13.80
2023-05-19T17:59:52.849Z,13.80
2023-05-19T18:02:19.823Z,13.80
2023-05-19T18:04:46.839Z,13.80
2023-05-19T18:07:14.322Z,13.80
2023-05-19T18:09:45.644Z,13.80
2023-05-19T18:12:12.532Z,13.80
2023-05-19T18:14:39.679Z,13.80
2023-05-19T18:17:06.489Z,13.80
2023-05-19T18:19:33.208Z,13.70
2023-05-19T18:22:00.123Z,13.70
2023-05-19T18:24:26.995Z,13.70
2023-05-19T18:26:53.755Z,13.70
2023-05-19T18:29:20.483Z,13.60
2023-05-19T18:31:47.313Z,13.60
2023-05-19T18:34:14.207Z,13.50
2023-05-19T18:36:41.333Z,13.50
2023-05-19T18:39:08.065Z,13.40
2023-05-19T18:41:37.304Z,13.40
2023-05-19T18:44:05.894Z,13.30
2023-05-19T18:46:33.606Z,13.20
2023-05-19T18:49:00.501Z,13.10
2023-05-19T18:51:27.294Z,13.10
2023-05-19T18:53:53.983Z,13.00
2023-05-19T18:56:27.502Z,12.90
2023-05-19T18:58:54.658Z,12.90
2023-05-19T19:01:21.410Z,12.80
2023-05-19T19:03:49.229Z,12.80
2023-05-19T19:06:23.355Z,12.70
2023-05-19T19:08:50.467Z,12.70
2023-05-19T19:11:17.248Z,12.70
2023-05-19T19:13:44.009Z,12.60
2023-05-19T19:16:11.052Z,12.60
2023-05-19T19:18:37.833Z,12.60
2023-05-19T19:21:05.875Z,12.60
2023-05-19T19:23:33.014Z,12.50
2023-05-19T19:26:00.150Z,12.50
2023-05-19T19:28:26.934Z,12.40
2023-05-19T19:30:53.702Z,12.40
2023-05-19T19:33:20.602Z,12.40
2023-05-19T19:35:47.378Z,12.40
2023-05-19T19:38:14.145Z,12.30
2023-05-19T19:40:40.999Z,12.20
2023-05-19T19:43:07.751Z,12.20
2023-05-19T19:45:34.902Z,12.20
2023-05-19T19:48:01.832Z,12.10
2023-05-19T19:50:28.663Z,12.10
2023-05-19T19:52:55.427Z,12.10
2023-05-19T19:55:22.155Z,12.10
2023-05-19T19:57:51.013Z,12.00
2023-05-19T20:00:18.496Z,12.10
2023-05-19T20:03:02.948Z,12.10
2023-05-19T20:05:31.562Z,12.10
2023-05-19T20:07:58.422Z,12.00
2023-05-19T20:10:25.200Z,12.00
2023-05-19T20:12:52.141Z,12.00
2023-05-19T20:15:19.543Z,11.90
2023-05-19T20:17:46.212Z,11.90
2023-05-19T20:20:13.386Z,11.90
2023-05-19T20:22:40.212Z,11.90
2023-05-19T20:25:07.349Z,11.70
2023-05-19T20:27:34.193Z,11.70
2023-05-19T20:30:00.934Z,11.60
2023-05-19T20:32:27.653Z,11.50
2023-05-19T20:34:54.422Z,11.50
2023-05-19T20:37:22.104Z,11.50
2023-05-19T20:39:48.950Z,11.50
2023-05-19T20:42:15.981Z,11.60
2023-05-19T20:44:42.856Z,11.60
2023-05-19T20:47:09.639Z,11.60
2023-05-19T20:49:36.475Z,11.70
2023-05-19T20:52:03.481Z,11.60
2023-05-19T20:54:30.479Z,11.60
2023-05-19T20:56:57.165Z,11.60
2023-05-19T20:59:23.868Z,11.50
2023-05-19T21:01:50.815Z,11.50
2023-05-19T21:04:17.626Z,11.50
2023-05-19T21:06:44.439Z,11.50
2023-05-19T21:09:11.314Z,11.50
2023-05-19T21:11:38.044Z,11.50
2023-05-19T21:14:04.819Z,11.50
2023-05-19T21:16:32.104Z,11.50
2023-05-19T21:18:58.907Z,11.50
2023-05-19T21:21:26.140Z,11.40
2023-05-19T21:23:52.972Z,11.30
2023-05-19T21:26:19.704Z,11.20
2023-05-19T21:28:46.391Z,11.30
2023-05-19T21:31:13.258Z,11.30
2023-05-19T21:33:40.043Z,11.30
2023-05-19T21:36:07.332Z,11.30
2023-05-19T21:38:34.085Z,11.30
2023-05-19T21:41:00.834Z,11.40
2023-05-19T21:43:27.632Z,11.40
2023-05-19T21:45:54.332Z,11.30
2023-05-19T21:48:21.652Z,11.20
2023-05-19T21:50:54.687Z,11.20
2023-05-19T21:53:21.539Z,11.20
2023-05-19T21:55:48.434Z,11.10
2023-05-19T21:58:15.214Z,11.10
2023-05-19T22:00:42.014Z,11.00
2023-05-19T22:03:08.887Z,11.00
2023-05-19T22:05:37.948Z,10.90
2023-05-19T22:08:04.849Z,10.90
2023-05-19T22:10:32.049Z,10.90
2023-05-19T22:12:58.886Z,10.80
2023-05-19T22:15:26.592Z,10.80
2023-05-19T22:17:53.378Z,10.80
2023-05-19T22:20:20.493Z,10.80
2023-05-19T22:22:47.219Z,10.80
2023-05-19T22:25:14.059Z,10.80
2023-05-19T22:27:40.771Z,10.80
2023-05-19T22:30:08.006Z,10.80
2023-05-19T22:32:35.170Z,10.80
2023-05-19T22:35:01.994Z,10.80
2023-05-19T22:37:28.973Z,10.70
2023-05-19T22:39:55.841Z,10.70
2023-05-19T22:42:22.533Z,10.60
2023-05-19T22:44:49.302Z,10.50
2023-05-19T22:47:16.308Z,10.50
2023-05-19T22:49:43.354Z,10.50
2023-05-19T22:52:11.637Z,10.50
2023-05-19T22:54:38.391Z,10.40
2023-05-19T22:57:05.467Z,10.40
2023-05-19T22:59:32.312Z,10.30
2023-05-19T23:01:59.002Z,10.30
2023-05-19T23:04:25.999Z,10.30
2023-05-19T23:06:52.877Z,10.20
2023-05-19T23:09:19.706Z,10.20
2023-05-19T23:11:46.505Z,10.20
2023-05-19T23:14:13.492Z,10.20
2023-05-19T23:16:40.311Z,10.20
2023-05-19T23:19:07.336Z,10.20
2023-05-19T23:21:34.074Z,10.10
2023-05-19T23:24:00.928Z,10.10
2023-05-19T23:26:27.672Z,10.10
2023-05-19T23:28:54.498Z,10.00
2023-05-19T23:31:21.244Z,10.00
2023-05-19T23:33:47.954Z,9.90
2023-05-19T23:36:14.694Z,9.90
2023-05-19T23:38:41.469Z,9.80
2023-05-19T23:41:08.296Z,9.80
2023-05-19T23:43:35.011Z,9.80
2023-05-19T23:46:01.868Z,9.60
2023-05-19T23:48:29.016Z,9.50
2023-05-19T23:50:56.796Z,9.50
2023-05-19T23:53:23.690Z,9.50
2023-05-19T23:55:51.393Z,9.50
2023-05-19T23:58:18.470Z,9.60
